Latest METARs, TAFs and NOTAMs for MMSD


---------------------------------------------------------------------------
	(OBSERVATIONS)
MMSD 212240Z 12016KT 12SM  SKC 26/06 A2995=
MMSD 212141Z 12013KT 12SM  SKC 27/01 A2996=
---------------------------------------------------------------------------
	(TERMINAL AREA FORECAST)
MMSD 211618Z 2118/2218 16014KT P6SM BKN250
    FM220600 24005KT P6SM SKC
    FM221700 16014KT P6SM SCT250=
---------------------------------------------------------------------------
	(NOTAMS)


MMSD A0806/19 SMC OPR IN FREQ 134.1 MHZ. 12 FEB 14:32 2019 UNTIL
    PERM. CREATED: 12 FEB 14:37 2019

MMSD A1129/19 APP OPR IN FREQ 128.7 MHZ. 1800/2300 DAYS 1 TO
    3, 7 TO 10, 14 TO 18, 21 TO 24,AND 28 TO 31 MAR, 01 MAR 18:00
    2019 UNTIL 31 MAR 23:00 2019. CREATED: 28 FEB 19:01 2019

MMSD A1130/19 CD OPR IN FREQ 135.2 MHZ. 1800/2300 DAYS 1 TO 3,
    7 TO 10, 14 TO 18, 21 TO 24 AND 28 TO 31 MAR, 01 MAR 18:00
    2019 UNTIL 31 MAR 23:00 2019. CREATED: 28 FEB 19:04 2019

MMSD A1138/19 ESTABLISHED ALT BELOW 15000 FT AT WPT MARUX PUBLISHED
    STAR ENEKO1A IN CHARTS MMSD-STAR-1/STAR-1-1 AMDT 01/19 DATE
    03-JAN-2019 OF MEXICO AIP. 28 FEB 23:08 2019 UNTIL PERM.
    CREATED: 28 FEB 23:22 2019

MMSD A1139/19 ESTABLISHED ALT BELOW 15000 FT AT WPT MARUX PUBLISHED
    STAR ENEKO1B IN CHARTS MMSD-STAR-2/STAR-2-1 AMDT 03/19 DATE
    28-FEB-2019 OF MEXICO AIP. 28 FEB 23:14 2019 UNTIL PERM.
    CREATED: 28 FEB 23:37 2019

MMSD A1146/19 ABN U/S. 01 MAR 03:08 2019 UNTIL 31 MAR 06:00 2019.
    CREATED: 01 MAR 03:21 2019

MMSD A1147/19 ON STRIP THR RWY 34 WIP. 01 MAR 03:14 2019 UNTIL
    31 MAR 12:00 2019. CREATED: 01 MAR 03:27 2019

MMSD A1148/19 ON STRIP TWY A WIP. 01 MAR 03:20 2019 UNTIL 31
    MAR 12:00 2019. CREATED: 01 MAR 03:29 2019

MMSD A1486/19 EXTENSION OF AP HOURS OF SER NOT AUTH. 0701/1200
    DLY, 20 MAR 07:01 2019 UNTIL 24 MAR 12:00 2019. CREATED:
    19 MAR 23:06 2019

MMSD A1487/19 ON RWY 16/34 WIP. 0701/1200 DLY, 20 MAR 07:01 2019
    UNTIL 24 MAR 12:00 2019. CREATED: 19 MAR 23:10 2019

---------------------------------------------------------------------------